Terminal Aerodrome Forecast
Issued by NWS

Home | Current Version | Previous Version | Text Only | Print | Product List | Glossary On
Versions: 1 2 3 4 5 6 7 8 9 10 11 12 13 14 15 16
000
FTUS43 KICT 230500
TAFRSL
TAF
KRSL 230522Z 2306/2406 12010KT P6SM VCTS BKN090CB
     FM230900 17013KT P6SM SCT090 BKN200
     FM231500 19018G26KT P6SM SCT090
     FM240100 17015G22KT P6SM SCT100=

USA.gov is the U.S. government's official web portal to all federal, state and local government web resources and services.